首页
METAR-TAF:

METAR-TAF

机场 :

Derby Field

拉夫洛克, 内华达州, 美国

纬度: 40-03-59N, 经度: 118-33-55W, 海拔: 1190米

当前天气观测

该预报发布于26分钟前的23:08 UTC
风速12节,风向东北,有时为21节阵风
温度 34°C
湿度 18%
气压 1018 hPa
能見度: 16.1公里
天空无云

METAR: KLOL 152308Z AUTO 04012G21KT 10SM CLR 34/06 A3007 RMK AO2 WSHFT 2248 T03440061

时间: 16:34 (23:34 UTC)


TAF: 丢失

超过4000个机场的气象观测和天气预报(METAR&TAF报告)。

可查询的气象台以黄色和红色小点在地图上表示。

将鼠标移到小点上方,可查看气象台名称。

然后点击查看天气观测和预报。

如需切换地图:点击带黑十字的绿色按钮放大地图;点击带横线的绿色按钮缩小地图;或者点击绿色箭头查看邻近地区的地图。


METAR-TAF: